createdAt,value
2017-05-26T00:01:36.423Z,4.14
2017-05-26T00:04:04.650Z,4.10
2017-05-26T00:06:32.874Z,4.18
2017-05-26T00:09:01.103Z,4.50
2017-05-26T00:11:29.325Z,4.70
2017-05-26T00:13:57.579Z,4.48
2017-05-26T00:16:25.818Z,4.84
2017-05-26T00:18:54.059Z,4.32
2017-05-26T00:21:22.278Z,5.18
2017-05-26T00:23:50.513Z,4.10
2017-05-26T00:26:18.791Z,4.72
2017-05-26T00:28:47.012Z,4.64
2017-05-26T00:31:15.239Z,4.90
2017-05-26T00:33:43.470Z,5.66
2017-05-26T00:36:11.717Z,5.38
2017-05-26T00:38:39.939Z,6.54
2017-05-26T00:41:08.210Z,5.96
2017-05-26T00:43:36.445Z,6.04
2017-05-26T00:46:04.670Z,6.70
2017-05-26T00:48:32.895Z,6.04
2017-05-26T00:51:01.123Z,6.18
2017-05-26T00:53:29.354Z,5.62
2017-05-26T00:55:57.599Z,5.46
2017-05-26T00:58:25.839Z,5.76
2017-05-26T01:00:54.062Z,6.00
2017-05-26T01:03:22.303Z,5.80
2017-05-26T01:05:50.527Z,5.40
2017-05-26T01:08:18.783Z,5.46
2017-05-26T01:10:47.002Z,5.60
2017-05-26T01:13:15.230Z,5.46
2017-05-26T01:15:43.459Z,5.48
2017-05-26T01:18:11.688Z,6.54
2017-05-26T01:20:39.938Z,5.96
2017-05-26T01:23:08.162Z,6.48
2017-05-26T01:25:36.399Z,6.18
2017-05-26T01:28:04.637Z,6.62
2017-05-26T01:30:32.887Z,4.84
2017-05-26T01:33:01.279Z,5.90
2017-05-26T01:35:29.500Z,5.66
2017-05-26T01:37:57.722Z,5.76
2017-05-26T01:40:25.946Z,5.56
2017-05-26T01:42:54.175Z,5.96
2017-05-26T01:45:22.404Z,5.28
2017-05-26T01:47:50.643Z,6.18
2017-05-26T01:50:18.866Z,5.46
2017-05-26T01:52:47.103Z,6.14
2017-05-26T01:55:15.340Z,6.16
2017-05-26T01:57:43.583Z,6.04
2017-05-26T02:00:11.802Z,6.78
2017-05-26T02:02:40.036Z,5.34
2017-05-26T02:05:08.259Z,5.82
2017-05-26T02:07:36.494Z,6.66
2017-05-26T02:10:04.722Z,5.92
2017-05-26T02:12:32.955Z,5.40
2017-05-26T02:15:01.187Z,6.32
2017-05-26T02:17:29.412Z,6.38
2017-05-26T02:19:57.976Z,6.50
2017-05-26T02:22:26.194Z,6.70
2017-05-26T02:24:54.438Z,6.02
2017-05-26T02:27:22.659Z,6.40
2017-05-26T02:29:50.882Z,6.60
2017-05-26T02:32:19.146Z,6.30
2017-05-26T02:34:47.366Z,6.76
2017-05-26T02:37:15.613Z,6.82
2017-05-26T02:39:43.849Z,6.12
2017-05-26T02:42:12.084Z,5.84
2017-05-26T02:44:40.323Z,5.30
2017-05-26T02:47:08.561Z,5.50
2017-05-26T02:49:36.797Z,6.26
2017-05-26T02:52:05.057Z,6.22
2017-05-26T02:54:33.289Z,6.12
2017-05-26T02:57:01.515Z,6.22
2017-05-26T02:59:29.758Z,6.22
2017-05-26T03:01:57.983Z,7.30
2017-05-26T03:04:26.222Z,6.32
2017-05-26T03:06:54.490Z,6.76
2017-05-26T03:09:22.730Z,6.72
2017-05-26T03:11:50.971Z,7.84
2017-05-26T03:14:19.213Z,7.22
2017-05-26T03:16:47.430Z,6.94
2017-05-26T03:19:15.655Z,6.46
2017-05-26T03:21:43.897Z,6.62
2017-05-26T03:24:12.123Z,6.90
2017-05-26T03:26:40.366Z,6.70
2017-05-26T03:29:08.599Z,7.18
2017-05-26T03:31:36.863Z,6.68
2017-05-26T03:34:05.107Z,7.10
2017-05-26T03:36:33.339Z,7.82
2017-05-26T03:39:01.578Z,7.38
2017-05-26T03:41:29.916Z,7.80
2017-05-26T03:43:58.139Z,6.50
2017-05-26T03:46:26.379Z,7.58
2017-05-26T03:48:54.625Z,6.96
2017-05-26T03:51:22.866Z,7.16
2017-05-26T03:53:51.114Z,6.86
2017-05-26T03:56:19.347Z,7.74
2017-05-26T03:58:47.578Z,7.52
2017-05-26T04:01:15.814Z,7.40
2017-05-26T04:03:44.048Z,7.12
2017-05-26T04:06:12.274Z,8.26
2017-05-26T04:08:40.622Z,7.98
2017-05-26T04:11:08.842Z,8.28
2017-05-26T04:13:37.074Z,8.12
2017-05-26T04:16:05.303Z,8.04
2017-05-26T04:18:33.534Z,7.64
2017-05-26T04:21:01.782Z,7.80
2017-05-26T04:23:30.011Z,7.62
2017-05-26T04:25:58.243Z,8.80
2017-05-26T04:28:26.479Z,8.26
2017-05-26T04:30:54.733Z,8.88
2017-05-26T04:33:22.961Z,7.92
2017-05-26T04:35:51.227Z,8.26
2017-05-26T04:38:19.474Z,7.88
2017-05-26T04:40:47.889Z,8.48
2017-05-26T04:43:16.106Z,8.94
2017-05-26T04:45:44.336Z,7.70
2017-05-26T04:48:12.575Z,7.84
2017-05-26T04:50:40.818Z,7.56
2017-05-26T04:53:09.056Z,8.20
2017-05-26T04:55:37.287Z,7.94
2017-05-26T04:58:05.537Z,8.70
2017-05-26T05:00:33.771Z,8.90
2017-05-26T05:03:02.039Z,8.48
2017-05-26T05:05:30.277Z,9.40
2017-05-26T05:07:58.513Z,8.84
2017-05-26T05:10:26.757Z,8.76
2017-05-26T05:12:54.983Z,9.30
2017-05-26T05:15:23.215Z,7.96
2017-05-26T05:17:51.469Z,8.42
2017-05-26T05:20:19.717Z,9.26
2017-05-26T05:22:47.947Z,7.90
2017-05-26T05:25:17.171Z,8.18
2017-05-26T05:27:45.394Z,9.36
2017-05-26T05:30:13.741Z,8.20
2017-05-26T05:32:41.975Z,8.96
2017-05-26T05:35:10.216Z,9.50
2017-05-26T05:37:38.439Z,7.96
2017-05-26T05:40:06.671Z,8.10
2017-05-26T05:42:34.898Z,8.76
2017-05-26T05:45:03.123Z,9.10
2017-05-26T05:47:31.366Z,8.08
2017-05-26T05:49:59.595Z,9.62
2017-05-26T05:52:27.826Z,10.08
2017-05-26T05:54:56.061Z,8.82
2017-05-26T05:57:24.305Z,10.52
2017-05-26T05:59:52.530Z,10.10
2017-05-26T06:02:20.768Z,11.12
2017-05-26T06:04:49.010Z,11.50
2017-05-26T06:07:17.265Z,10.16
2017-05-26T06:09:45.501Z,12.12
2017-05-26T06:12:13.728Z,10.18
2017-05-26T06:14:41.982Z,9.70
2017-05-26T06:17:10.214Z,10.84
2017-05-26T06:19:38.447Z,9.52
2017-05-26T06:22:06.675Z,10.08
2017-05-26T06:24:34.894Z,9.94
2017-05-26T06:27:04.053Z,10.22
2017-05-26T06:29:32.297Z,10.48
2017-05-26T06:32:00.544Z,10.24
2017-05-26T06:34:29.083Z,10.00
2017-05-26T06:36:57.335Z,9.66
2017-05-26T06:39:25.585Z,10.90
2017-05-26T06:41:53.814Z,10.40
2017-05-26T06:44:22.047Z,12.10
2017-05-26T06:46:50.283Z,11.50
2017-05-26T06:49:18.567Z,10.92
2017-05-26T06:51:46.824Z,9.46
2017-05-26T06:54:15.058Z,11.42
2017-05-26T06:56:43.278Z,10.30
2017-05-26T06:59:11.547Z,9.56
2017-05-26T07:01:39.774Z,9.00
2017-05-26T07:04:08.000Z,8.90
2017-05-26T07:06:36.231Z,10.06
2017-05-26T07:09:04.456Z,9.02
2017-05-26T07:11:32.697Z,9.20
2017-05-26T07:14:00.919Z,9.78
2017-05-26T07:16:29.154Z,8.50
2017-05-26T07:18:57.394Z,8.86
2017-05-26T07:21:25.630Z,7.88
2017-05-26T07:23:53.859Z,7.64
2017-05-26T07:26:22.100Z,8.68
2017-05-26T07:28:50.318Z,8.20
2017-05-26T07:31:18.579Z,9.04
2017-05-26T07:33:46.813Z,8.42
2017-05-26T07:36:15.039Z,8.88
2017-05-26T07:38:43.282Z,8.40
2017-05-26T07:41:11.521Z,8.44
2017-05-26T07:43:39.760Z,7.98
2017-05-26T07:46:08.001Z,8.72
2017-05-26T07:48:36.231Z,8.34
2017-05-26T07:51:04.477Z,10.20
2017-05-26T07:53:32.739Z,9.40
2017-05-26T07:56:00.967Z,8.58
2017-05-26T07:58:29.198Z,8.14
2017-05-26T08:00:57.418Z,8.54
2017-05-26T08:03:25.650Z,8.12
2017-05-26T08:05:53.906Z,8.10
2017-05-26T08:08:22.122Z,8.44
2017-05-26T08:10:50.363Z,6.88
2017-05-26T08:13:18.588Z,6.80
2017-05-26T08:15:46.855Z,6.46
2017-05-26T08:18:15.077Z,7.10
2017-05-26T08:20:43.313Z,7.26
2017-05-26T08:23:11.558Z,8.00
2017-05-26T08:25:39.779Z,7.90
2017-05-26T08:28:08.016Z,7.06
2017-05-26T08:30:36.234Z,7.74
2017-05-26T08:33:04.462Z,7.62
2017-05-26T08:35:32.687Z,7.50
2017-05-26T08:38:00.942Z,7.78
2017-05-26T08:40:29.171Z,6.80
2017-05-26T08:42:57.429Z,6.52
2017-05-26T08:45:25.666Z,7.80
2017-05-26T08:47:53.900Z,7.18
2017-05-26T08:50:22.123Z,5.82
2017-05-26T08:52:50.361Z,6.68
2017-05-26T08:55:18.591Z,5.94
2017-05-26T08:57:46.833Z,6.28
2017-05-26T09:00:15.063Z,5.58
2017-05-26T09:02:43.287Z,5.38
2017-05-26T09:05:11.531Z,13.34
2017-05-26T09:07:39.757Z,6.70
2017-05-26T09:10:07.983Z,5.20
2017-05-26T09:12:36.210Z,5.58
2017-05-26T09:15:04.453Z,5.40
2017-05-26T09:17:32.687Z,5.64
2017-05-26T09:20:00.910Z,6.16
2017-05-26T09:22:29.158Z,5.60
2017-05-26T09:24:57.383Z,5.36
2017-05-26T09:27:25.619Z,5.54
2017-05-26T09:29:53.848Z,5.00
2017-05-26T09:32:22.087Z,4.88
2017-05-26T09:34:50.337Z,4.80
2017-05-26T09:37:18.574Z,5.20
2017-05-26T09:39:46.794Z,5.30
2017-05-26T09:42:15.020Z,4.12
2017-05-26T09:44:43.255Z,5.00
2017-05-26T09:47:11.478Z,4.70
2017-05-26T09:49:39.706Z,4.92
2017-05-26T09:52:07.926Z,5.86
2017-05-26T09:54:36.180Z,5.24
2017-05-26T09:57:04.406Z,5.16
2017-05-26T09:59:32.645Z,5.40
2017-05-26T10:02:00.866Z,5.76
2017-05-26T10:04:29.134Z,4.98
2017-05-26T10:06:57.371Z,5.48
2017-05-26T10:09:25.606Z,5.62
2017-05-26T10:11:53.843Z,5.82
2017-05-26T10:14:22.078Z,5.58
2017-05-26T10:16:50.331Z,5.48
2017-05-26T10:19:18.572Z,4.72
2017-05-26T10:21:46.830Z,7.36
2017-05-26T10:24:15.055Z,5.86
2017-05-26T10:26:43.357Z,4.32
2017-05-26T10:29:11.729Z,5.18
2017-05-26T10:31:39.965Z,5.20
2017-05-26T10:34:08.196Z,5.92
2017-05-26T10:36:36.418Z,4.86
2017-05-26T10:39:04.646Z,4.96
2017-05-26T10:41:32.867Z,6.62
2017-05-26T10:44:01.107Z,6.30
2017-05-26T10:46:29.359Z,5.60
2017-05-26T10:48:57.586Z,5.34
2017-05-26T10:51:25.815Z,5.22
2017-05-26T10:53:54.048Z,5.00
2017-05-26T10:56:22.266Z,5.18
2017-05-26T10:58:50.492Z,4.92
2017-05-26T11:01:18.714Z,5.50
2017-05-26T11:03:46.953Z,4.56
2017-05-26T11:06:15.196Z,4.94
2017-05-26T11:08:43.447Z,5.84
2017-05-26T11:11:11.684Z,5.82
2017-05-26T11:13:39.911Z,5.08
2017-05-26T11:16:08.170Z,5.26
2017-05-26T11:18:36.395Z,4.56
2017-05-26T11:21:04.627Z,4.30
2017-05-26T11:23:32.850Z,4.38
2017-05-26T11:26:01.079Z,4.40
2017-05-26T11:28:29.317Z,4.50
2017-05-26T11:30:57.534Z,5.06
2017-05-26T11:33:26.192Z,4.22
2017-05-26T11:35:54.415Z,4.24
2017-05-26T11:38:22.670Z,4.18
2017-05-26T11:40:50.892Z,4.14
2017-05-26T11:43:19.147Z,4.38
2017-05-26T11:45:47.371Z,4.78
2017-05-26T11:48:15.604Z,4.04
2017-05-26T11:50:43.916Z,4.78
2017-05-26T11:53:12.154Z,7.20
2017-05-26T11:55:40.378Z,3.98
2017-05-26T11:58:08.599Z,3.98
2017-05-26T12:00:36.834Z,4.00
2017-05-26T12:03:05.064Z,4.26
2017-05-26T12:05:33.338Z,4.60
2017-05-26T12:08:01.563Z,3.42
2017-05-26T12:10:29.812Z,4.06
2017-05-26T12:12:58.045Z,3.46
2017-05-26T12:15:26.283Z,3.44
2017-05-26T12:17:54.514Z,3.92
2017-05-26T12:20:22.739Z,4.60
2017-05-26T12:22:50.985Z,3.60
2017-05-26T12:25:19.210Z,3.30
2017-05-26T12:27:47.463Z,4.20
2017-05-26T12:30:15.695Z,5.08
2017-05-26T12:32:43.918Z,4.22
2017-05-26T12:35:12.166Z,3.92
2017-05-26T12:37:40.378Z,3.80
2017-05-26T12:40:08.604Z,3.24
2017-05-26T12:42:36.897Z,3.70
2017-05-26T12:45:05.167Z,3.84
2017-05-26T12:47:33.394Z,3.82
2017-05-26T12:50:01.652Z,3.24
2017-05-26T12:52:29.914Z,4.38
2017-05-26T12:54:58.228Z,4.12
2017-05-26T12:57:26.530Z,4.50
2017-05-26T12:59:54.761Z,4.18
2017-05-26T13:02:22.988Z,3.98
2017-05-26T13:04:51.206Z,5.10
2017-05-26T13:07:19.439Z,4.24
2017-05-26T13:09:47.663Z,3.90
2017-05-26T13:12:15.899Z,3.40
2017-05-26T13:14:44.138Z,3.60
2017-05-26T13:17:12.431Z,3.02
2017-05-26T13:19:40.651Z,4.02
2017-05-26T13:22:08.893Z,3.64
2017-05-26T13:24:37.148Z,3.84
2017-05-26T13:27:05.378Z,3.46
2017-05-26T13:29:33.623Z,4.06
2017-05-26T13:32:01.848Z,3.48
2017-05-26T13:34:30.078Z,3.78
2017-05-26T13:36:58.302Z,3.14
2017-05-26T13:39:26.550Z,2.84
2017-05-26T13:41:54.773Z,3.60
2017-05-26T13:44:23.006Z,3.60
2017-05-26T13:46:51.241Z,3.30
2017-05-26T13:49:19.462Z,3.34
2017-05-26T13:51:47.731Z,2.74
2017-05-26T13:54:15.958Z,3.34
2017-05-26T13:56:44.199Z,2.34
2017-05-26T13:59:12.441Z,3.38
2017-05-26T14:01:40.686Z,2.84
2017-05-26T14:04:08.917Z,3.12
2017-05-26T14:06:37.166Z,2.70
2017-05-26T14:09:05.390Z,2.64
2017-05-26T14:11:33.620Z,2.36
2017-05-26T14:14:01.851Z,3.28
2017-05-26T14:16:30.076Z,2.12
2017-05-26T14:18:58.299Z,3.18
2017-05-26T14:21:26.526Z,2.72
2017-05-26T14:23:54.764Z,2.42
2017-05-26T14:26:22.991Z,2.94
2017-05-26T14:28:51.238Z,3.14
2017-05-26T14:31:19.463Z,2.72
2017-05-26T14:33:47.719Z,3.06
2017-05-26T14:36:15.949Z,3.08
2017-05-26T14:38:44.170Z,2.80
2017-05-26T14:41:12.396Z,2.50
2017-05-26T14:43:40.623Z,2.82
2017-05-26T14:46:08.858Z,2.84
2017-05-26T14:48:37.082Z,3.12
2017-05-26T14:51:05.319Z,3.12
2017-05-26T14:53:33.849Z,3.40
2017-05-26T14:56:02.166Z,3.16
2017-05-26T14:58:30.402Z,3.10
2017-05-26T15:00:58.651Z,3.42
2017-05-26T15:03:26.874Z,3.72
2017-05-26T15:05:55.098Z,3.10
2017-05-26T15:08:23.326Z,4.70
2017-05-26T15:10:51.550Z,3.48
2017-05-26T15:13:19.798Z,2.78
2017-05-26T15:15:48.018Z,3.32
2017-05-26T15:18:16.259Z,4.00
2017-05-26T15:20:44.502Z,2.58
2017-05-26T15:23:12.735Z,2.74
2017-05-26T15:25:40.974Z,3.10
2017-05-26T15:28:09.203Z,3.78
2017-05-26T15:30:37.439Z,3.38
2017-05-26T15:33:05.674Z,3.40
2017-05-26T15:35:33.921Z,3.06
2017-05-26T15:38:02.181Z,3.42
2017-05-26T15:40:30.410Z,3.58
2017-05-26T15:42:58.643Z,3.06
2017-05-26T15:45:26.875Z,3.08
2017-05-26T15:47:55.098Z,2.90
2017-05-26T15:50:23.350Z,3.36
2017-05-26T15:52:51.603Z,2.72
2017-05-26T15:55:19.878Z,3.60
2017-05-26T15:57:48.099Z,3.10
2017-05-26T16:00:16.347Z,3.74
2017-05-26T16:02:44.575Z,3.62
2017-05-26T16:05:12.799Z,3.58
2017-05-26T16:07:41.028Z,3.24
2017-05-26T16:10:09.259Z,3.52
2017-05-26T16:12:37.501Z,3.22
2017-05-26T16:15:05.730Z,2.92
2017-05-26T16:17:33.975Z,4.22
2017-05-26T16:20:02.198Z,3.78
2017-05-26T16:22:30.464Z,3.58
2017-05-26T16:24:58.704Z,3.00
2017-05-26T16:27:26.922Z,3.34
2017-05-26T16:29:55.162Z,3.22
2017-05-26T16:32:23.391Z,3.30
2017-05-26T16:34:51.623Z,2.92
2017-05-26T16:37:19.850Z,3.66
2017-05-26T16:39:48.079Z,3.50
2017-05-26T16:57:46.818Z,3.20
2017-05-26T17:02:51.988Z,4.16
2017-05-26T17:05:20.852Z,3.10
2017-05-26T17:07:48.960Z,3.38
2017-05-26T17:10:18.018Z,3.20
2017-05-26T17:12:46.870Z,3.70
2017-05-26T17:15:15.723Z,3.02
2017-05-26T17:17:44.556Z,2.98
2017-05-26T17:20:13.408Z,3.70
2017-05-26T17:22:42.266Z,3.28
2017-05-26T17:25:11.125Z,3.02
2017-05-26T17:27:39.959Z,3.44
2017-05-26T17:30:08.821Z,3.28
2017-05-26T17:32:36.903Z,3.18
2017-05-26T17:35:05.777Z,2.82
2017-05-26T17:37:34.612Z,3.26
2017-05-26T17:40:03.459Z,3.04
2017-05-26T17:42:32.314Z,3.22
2017-05-26T17:45:01.152Z,3.00
2017-05-26T17:47:30.000Z,4.02
2017-05-26T17:49:58.844Z,3.42
2017-05-26T17:52:27.699Z,3.16
2017-05-26T17:54:56.547Z,3.30
2017-05-26T17:57:25.404Z,2.66
2017-05-26T17:59:54.269Z,2.64
2017-05-26T18:02:23.124Z,3.26
2017-05-26T18:04:51.982Z,2.54
2017-05-26T18:07:20.066Z,2.78
2017-05-26T18:09:48.898Z,3.20
2017-05-26T18:12:17.731Z,3.42
2017-05-26T18:14:46.580Z,3.84
2017-05-26T18:17:15.431Z,3.60
2017-05-26T18:19:43.515Z,2.92
2017-05-26T18:22:12.350Z,2.92
2017-05-26T18:24:41.195Z,4.68
2017-05-26T18:27:10.050Z,4.88
2017-05-26T18:29:39.001Z,4.48
2017-05-26T18:32:07.896Z,7.06
2017-05-26T18:34:36.736Z,5.00
2017-05-26T18:37:04.804Z,3.44
2017-05-26T18:39:33.640Z,3.62
2017-05-26T18:42:02.488Z,3.42
2017-05-26T18:44:31.333Z,3.48
2017-05-26T18:47:00.184Z,3.32
2017-05-26T18:52:04.351Z,8.22
2017-05-26T18:54:33.202Z,3.14
2017-05-26T18:57:01.308Z,2.88
2017-05-26T18:59:30.164Z,3.36
2017-05-26T19:01:58.253Z,3.38
2017-05-26T19:04:27.110Z,3.20
2017-05-26T19:06:55.954Z,3.20
2017-05-26T19:09:24.788Z,3.40
2017-05-26T19:11:52.867Z,2.96
2017-05-26T19:14:21.727Z,3.24
2017-05-26T19:16:50.568Z,2.86
2017-05-26T19:19:19.440Z,2.70
2017-05-26T19:21:48.283Z,3.14
2017-05-26T19:24:17.123Z,4.62
2017-05-26T19:26:45.980Z,3.88
2017-05-26T19:29:14.819Z,4.36
2017-05-26T19:31:43.666Z,3.02
2017-05-26T19:34:12.499Z,2.92
2017-05-26T19:36:41.476Z,3.28
2017-05-26T19:39:10.336Z,3.30
2017-05-26T19:41:39.181Z,2.70
2017-05-26T19:44:08.029Z,3.20
2017-05-26T19:46:36.879Z,3.68
2017-05-26T19:49:05.716Z,2.72
2017-05-26T19:51:34.556Z,2.80
2017-05-26T19:54:03.419Z,3.38
2017-05-26T19:56:31.510Z,3.40
2017-05-26T19:59:00.351Z,2.94
2017-05-26T20:01:29.191Z,4.08
2017-05-26T20:03:58.031Z,4.68
2017-05-26T20:06:26.886Z,3.88
2017-05-26T20:08:55.720Z,3.46
2017-05-26T20:11:24.555Z,3.74
2017-05-26T20:13:54.246Z,3.86
2017-05-26T20:16:23.079Z,4.30
2017-05-26T20:18:52.036Z,3.52
2017-05-26T20:21:20.889Z,4.16
2017-05-26T20:23:49.723Z,5.54
2017-05-26T20:26:18.576Z,3.82
2017-05-26T20:28:47.408Z,6.38
2017-05-26T20:31:16.248Z,6.08
2017-05-26T20:33:45.088Z,6.08
2017-05-26T20:36:13.931Z,6.74
2017-05-26T20:38:42.768Z,7.02
2017-05-26T20:41:11.643Z,7.72
2017-05-26T20:43:40.486Z,13.22
2017-05-26T20:46:09.320Z,5.18
2017-05-26T20:48:38.179Z,4.82
2017-05-26T20:51:07.029Z,4.22
2017-05-26T20:53:35.868Z,7.50
2017-05-26T20:56:04.714Z,8.48
2017-05-26T20:58:33.836Z,12.00
2017-05-26T21:01:02.667Z,11.10
2017-05-26T21:03:31.529Z,4.92
2017-05-26T21:06:00.365Z,3.80
2017-05-26T21:08:29.707Z,4.04
2017-05-26T21:10:58.665Z,5.12
2017-05-26T21:13:27.511Z,4.60
2017-05-26T21:15:56.352Z,6.84
2017-05-26T21:18:25.339Z,11.58
2017-05-26T21:20:54.214Z,8.20
2017-05-26T21:23:23.046Z,3.90
2017-05-26T21:25:51.896Z,3.74
2017-05-26T21:28:20.733Z,3.80
2017-05-26T21:30:49.599Z,4.54
2017-05-26T21:33:18.760Z,4.16
2017-05-26T21:35:47.600Z,5.16
2017-05-26T21:38:16.449Z,4.72
2017-05-26T21:40:44.520Z,5.28
2017-05-26T21:43:13.432Z,4.38
2017-05-26T21:45:42.304Z,4.28
2017-05-26T21:48:10.396Z,5.02
2017-05-26T21:50:39.250Z,4.60
2017-05-26T21:53:08.129Z,5.10
2017-05-26T21:55:36.963Z,4.76
2017-05-26T21:58:05.824Z,5.76
2017-05-26T22:00:34.682Z,4.04
2017-05-26T22:03:03.535Z,4.54
2017-05-26T22:05:32.392Z,4.72
2017-05-26T22:08:01.235Z,4.10
2017-05-26T22:10:30.108Z,4.38
2017-05-26T22:12:58.973Z,4.06
2017-05-26T22:15:27.931Z,4.50
2017-05-26T22:17:56.783Z,4.46
2017-05-26T22:20:24.908Z,4.90
2017-05-26T22:22:53.756Z,5.12
2017-05-26T22:25:22.620Z,6.64
2017-05-26T22:27:51.468Z,4.90
2017-05-26T22:30:20.303Z,4.40
2017-05-26T22:32:48.384Z,5.42
2017-05-26T22:35:17.220Z,4.96
2017-05-26T22:37:46.072Z,5.54
2017-05-26T22:40:14.151Z,5.86
2017-05-26T22:42:43.027Z,5.34
2017-05-26T22:45:11.863Z,5.62
2017-05-26T22:47:40.713Z,5.82
2017-05-26T22:50:09.565Z,4.80
2017-05-26T22:52:38.414Z,6.38
2017-05-26T22:55:07.299Z,43.86
2017-05-26T22:57:36.156Z,9.22
2017-05-26T23:00:04.240Z,5.06
2017-05-26T23:02:34.761Z,4.80
2017-05-26T23:05:03.698Z,6.26
2017-05-26T23:07:32.618Z,11.88
2017-05-26T23:10:01.757Z,8.84
2017-05-26T23:12:30.664Z,5.52
2017-05-26T23:14:59.606Z,21.56
2017-05-26T23:17:28.533Z,13.38
2017-05-26T23:19:57.474Z,11.04
2017-05-26T23:22:26.340Z,16.32
2017-05-26T23:24:55.208Z,11.72
2017-05-26T23:27:24.044Z,6.54
2017-05-26T23:29:53.872Z,6.84
2017-05-26T23:32:22.781Z,8.68
2017-05-26T23:34:51.642Z,7.06
2017-05-26T23:37:20.506Z,7.62
2017-05-26T23:39:49.355Z,7.46
2017-05-26T23:42:18.209Z,7.66
2017-05-26T23:44:47.067Z,7.98
2017-05-26T23:47:15.147Z,11.20
2017-05-26T23:49:44.009Z,7.90
2017-05-26T23:52:12.871Z,8.46
2017-05-26T23:54:41.728Z,8.18
2017-05-26T23:57:10.584Z,7.84
2017-05-26T23:59:39.512Z,9.20
